sensor_id;sensor_type;location;lat;lon;timestamp;temperature;humidity
17740;DHT22;8990;33.226;-97.150;2023-09-19T00:00:42;31.50;80.50
17740;DHT22;8990;33.226;-97.150;2023-09-19T00:03:14;31.50;80.60
17740;DHT22;8990;33.226;-97.150;2023-09-19T00:05:43;31.40;81.00
17740;DHT22;8990;33.226;-97.150;2023-09-19T00:08:13;31.40;81.40
17740;DHT22;8990;33.226;-97.150;2023-09-19T00:10:44;31.30;81.30
17740;DHT22;8990;33.226;-97.150;2023-09-19T00:13:13;31.30;81.00
17740;DHT22;8990;33.226;-97.150;2023-09-19T00:15:43;31.30;81.30
17740;DHT22;8990;33.226;-97.150;2023-09-19T00:18:15;31.20;82.10
17740;DHT22;8990;33.226;-97.150;2023-09-19T00:20:47;31.10;81.80
17740;DHT22;8990;33.226;-97.150;2023-09-19T00:23:18;31.00;81.80
17740;DHT22;8990;33.226;-97.150;2023-09-19T00:25:49;30.90;81.90
17740;DHT22;8990;33.226;-97.150;2023-09-19T00:28:18;30.80;82.40
17740;DHT22;8990;33.226;-97.150;2023-09-19T00:30:48;30.70;82.70
17740;DHT22;8990;33.226;-97.150;2023-09-19T00:33:18;30.60;82.80
17740;DHT22;8990;33.226;-97.150;2023-09-19T00:35:51;30.50;83.00
17740;DHT22;8990;33.226;-97.150;2023-09-19T00:38:20;30.40;83.50
17740;DHT22;8990;33.226;-97.150;2023-09-19T00:40:55;30.30;83.40
17740;DHT22;8990;33.226;-97.150;2023-09-19T00:43:27;30.20;83.90
17740;DHT22;8990;33.226;-97.150;2023-09-19T00:45:56;30.20;84.20
17740;DHT22;8990;33.226;-97.150;2023-09-19T00:48:27;30.20;84.10
17740;DHT22;8990;33.226;-97.150;2023-09-19T00:50:59;30.20;84.20
17740;DHT22;8990;33.226;-97.150;2023-09-19T00:53:31;30.10;84.30
17740;DHT22;8990;33.226;-97.150;2023-09-19T00:56:03;30.00;84.40
17740;DHT22;8990;33.226;-97.150;2023-09-19T00:58:34;29.90;85.20
17740;DHT22;8990;33.226;-97.150;2023-09-19T01:01:05;29.80;85.10
17740;DHT22;8990;33.226;-97.150;2023-09-19T01:03:36;29.60;85.60
17740;DHT22;8990;33.226;-97.150;2023-09-19T01:06:07;29.40;87.10
17740;DHT22;8990;33.226;-97.150;2023-09-19T01:08:36;29.20;87.10
17740;DHT22;8990;33.226;-97.150;2023-09-19T01:11:12;29.20;87.20
17740;DHT22;8990;33.226;-97.150;2023-09-19T01:13:52;29.10;87.50
17740;DHT22;8990;33.226;-97.150;2023-09-19T01:16:33;29.00;86.80
17740;DHT22;8990;33.226;-97.150;2023-09-19T01:22:10;29.00;87.10
17740;DHT22;8990;33.226;-97.150;2023-09-19T01:25:02;28.90;87.30
17740;DHT22;8990;33.226;-97.150;2023-09-19T01:27:58;28.90;87.40
17740;DHT22;8990;33.226;-97.150;2023-09-19T01:30:42;28.80;87.30
17740;DHT22;8990;33.226;-97.150;2023-09-19T01:33:12;28.90;88.00
17740;DHT22;8990;33.226;-97.150;2023-09-19T01:35:41;28.90;88.70
17740;DHT22;8990;33.226;-97.150;2023-09-19T01:38:10;28.90;88.90
17740;DHT22;8990;33.226;-97.150;2023-09-19T01:40:42;29.60;89.70
17740;DHT22;8990;33.226;-97.150;2023-09-19T01:43:18;28.90;89.40
17740;DHT22;8990;33.226;-97.150;2023-09-19T01:46:02;28.80;89.90
17740;DHT22;8990;33.226;-97.150;2023-09-19T01:48:38;28.80;89.70
17740;DHT22;8990;33.226;-97.150;2023-09-19T01:51:20;28.70;90.20
17740;DHT22;8990;33.226;-97.150;2023-09-19T01:53:55;28.70;90.00
17740;DHT22;8990;33.226;-97.150;2023-09-19T01:56:32;28.70;90.00
17740;DHT22;8990;33.226;-97.150;2023-09-19T01:59:07;28.70;90.10
17740;DHT22;8990;33.226;-97.150;2023-09-19T02:01:40;28.70;90.30
17740;DHT22;8990;33.226;-97.150;2023-09-19T02:04:11;28.70;90.40
17740;DHT22;8990;33.226;-97.150;2023-09-19T02:06:41;28.70;90.50
17740;DHT22;8990;33.226;-97.150;2023-09-19T02:09:10;28.80;90.30
17740;DHT22;8990;33.226;-97.150;2023-09-19T02:11:40;28.60;90.40
17740;DHT22;8990;33.226;-97.150;2023-09-19T02:14:09;28.60;90.60
17740;DHT22;8990;33.226;-97.150;2023-09-19T02:16:39;28.60;90.50
17740;DHT22;8990;33.226;-97.150;2023-09-19T02:19:09;28.60;90.70
17740;DHT22;8990;33.226;-97.150;2023-09-19T02:21:38;28.50;90.90
17740;DHT22;8990;33.226;-97.150;2023-09-19T02:24:09;28.50;90.90
17740;DHT22;8990;33.226;-97.150;2023-09-19T02:26:39;28.50;91.10
17740;DHT22;8990;33.226;-97.150;2023-09-19T02:29:09;28.50;91.10
17740;DHT22;8990;33.226;-97.150;2023-09-19T02:31:41;28.40;91.00
17740;DHT22;8990;33.226;-97.150;2023-09-19T02:34:10;28.40;91.30
17740;DHT22;8990;33.226;-97.150;2023-09-19T02:36:41;28.30;91.30
17740;DHT22;8990;33.226;-97.150;2023-09-19T02:39:11;28.30;91.30
17740;DHT22;8990;33.226;-97.150;2023-09-19T02:41:40;28.30;91.40
17740;DHT22;8990;33.226;-97.150;2023-09-19T02:44:11;28.30;91.10
17740;DHT22;8990;33.226;-97.150;2023-09-19T02:46:42;28.30;91.00
17740;DHT22;8990;33.226;-97.150;2023-09-19T02:49:11;28.30;91.20
17740;DHT22;8990;33.226;-97.150;2023-09-19T02:51:41;28.20;91.20
17740;DHT22;8990;33.226;-97.150;2023-09-19T02:54:11;28.20;91.10
17740;DHT22;8990;33.226;-97.150;2023-09-19T02:56:40;28.10;91.00
17740;DHT22;8990;33.226;-97.150;2023-09-19T02:59:09;28.00;91.40
17740;DHT22;8990;33.226;-97.150;2023-09-19T03:01:38;27.90;91.40
17740;DHT22;8990;33.226;-97.150;2023-09-19T03:04:09;27.80;91.50
17740;DHT22;8990;33.226;-97.150;2023-09-19T03:06:38;27.80;91.70
17740;DHT22;8990;33.226;-97.150;2023-09-19T03:09:07;27.70;91.70
17740;DHT22;8990;33.226;-97.150;2023-09-19T03:11:38;27.60;91.90
17740;DHT22;8990;33.226;-97.150;2023-09-19T03:14:07;27.60;92.10
17740;DHT22;8990;33.226;-97.150;2023-09-19T03:16:37;27.50;92.20
17740;DHT22;8990;33.226;-97.150;2023-09-19T03:19:08;27.40;92.40
17740;DHT22;8990;33.226;-97.150;2023-09-19T03:21:38;27.30;92.50
17740;DHT22;8990;33.226;-97.150;2023-09-19T03:24:07;27.30;92.50
17740;DHT22;8990;33.226;-97.150;2023-09-19T03:26:36;27.30;92.60
17740;DHT22;8990;33.226;-97.150;2023-09-19T03:29:05;27.30;92.60
17740;DHT22;8990;33.226;-97.150;2023-09-19T03:31:37;27.30;92.60
17740;DHT22;8990;33.226;-97.150;2023-09-19T03:34:10;27.30;92.80
17740;DHT22;8990;33.226;-97.150;2023-09-19T03:36:39;27.20;92.70
17740;DHT22;8990;33.226;-97.150;2023-09-19T03:39:09;27.20;93.00
17740;DHT22;8990;33.226;-97.150;2023-09-19T03:41:39;27.20;93.00
17740;DHT22;8990;33.226;-97.150;2023-09-19T03:44:08;27.00;93.10
17740;DHT22;8990;33.226;-97.150;2023-09-19T03:46:37;27.00;93.10
17740;DHT22;8990;33.226;-97.150;2023-09-19T03:49:06;27.00;93.10
17740;DHT22;8990;33.226;-97.150;2023-09-19T03:51:37;27.00;93.10
17740;DHT22;8990;33.226;-97.150;2023-09-19T03:54:08;27.00;93.30
17740;DHT22;8990;33.226;-97.150;2023-09-19T03:56:37;26.90;93.40
17740;DHT22;8990;33.226;-97.150;2023-09-19T03:59:06;26.90;93.40
17740;DHT22;8990;33.226;-97.150;2023-09-19T04:01:36;26.90;93.70
17740;DHT22;8990;33.226;-97.150;2023-09-19T04:04:05;26.80;93.50
17740;DHT22;8990;33.226;-97.150;2023-09-19T04:06:39;26.80;93.70
17740;DHT22;8990;33.226;-97.150;2023-09-19T04:09:07;26.80;93.70
17740;DHT22;8990;33.226;-97.150;2023-09-19T04:11:36;26.80;93.80
17740;DHT22;8990;33.226;-97.150;2023-09-19T04:14:05;26.70;93.80
17740;DHT22;8990;33.226;-97.150;2023-09-19T04:16:34;26.70;93.90
17740;DHT22;8990;33.226;-97.150;2023-09-19T04:19:03;26.70;93.90
17740;DHT22;8990;33.226;-97.150;2023-09-19T04:21:32;26.60;93.90
17740;DHT22;8990;33.226;-97.150;2023-09-19T04:24:03;26.60;93.90
17740;DHT22;8990;33.226;-97.150;2023-09-19T04:26:32;26.60;94.00
17740;DHT22;8990;33.226;-97.150;2023-09-19T04:29:02;26.50;94.00
17740;DHT22;8990;33.226;-97.150;2023-09-19T04:31:33;26.50;94.30
17740;DHT22;8990;33.226;-97.150;2023-09-19T04:34:02;26.50;94.20
17740;DHT22;8990;33.226;-97.150;2023-09-19T04:36:31;26.40;94.10
17740;DHT22;8990;33.226;-97.150;2023-09-19T04:39:00;26.40;94.20
17740;DHT22;8990;33.226;-97.150;2023-09-19T04:41:33;26.40;94.30
17740;DHT22;8990;33.226;-97.150;2023-09-19T04:44:04;26.40;94.30
17740;DHT22;8990;33.226;-97.150;2023-09-19T04:46:34;26.40;94.40
17740;DHT22;8990;33.226;-97.150;2023-09-19T04:49:03;26.40;94.60
17740;DHT22;8990;33.226;-97.150;2023-09-19T04:51:32;26.40;95.00
17740;DHT22;8990;33.226;-97.150;2023-09-19T04:54:03;26.40;94.60
17740;DHT22;8990;33.226;-97.150;2023-09-19T04:56:33;26.40;94.50
17740;DHT22;8990;33.226;-97.150;2023-09-19T04:59:02;26.30;94.40
17740;DHT22;8990;33.226;-97.150;2023-09-19T05:01:31;26.30;94.50
17740;DHT22;8990;33.226;-97.150;2023-09-19T05:04:00;26.30;94.60
17740;DHT22;8990;33.226;-97.150;2023-09-19T05:06:32;26.20;94.70
17740;DHT22;8990;33.226;-97.150;2023-09-19T05:09:02;26.20;94.90
17740;DHT22;8990;33.226;-97.150;2023-09-19T05:11:33;26.10;94.90
17740;DHT22;8990;33.226;-97.150;2023-09-19T05:14:04;26.10;94.90
17740;DHT22;8990;33.226;-97.150;2023-09-19T05:16:34;26.10;94.90
17740;DHT22;8990;33.226;-97.150;2023-09-19T05:19:04;26.10;94.90
17740;DHT22;8990;33.226;-97.150;2023-09-19T05:21:33;26.00;95.00
17740;DHT22;8990;33.226;-97.150;2023-09-19T05:24:02;26.00;94.90
17740;DHT22;8990;33.226;-97.150;2023-09-19T05:26:34;26.00;95.50
17740;DHT22;8990;33.226;-97.150;2023-09-19T05:29:03;26.00;95.10
17740;DHT22;8990;33.226;-97.150;2023-09-19T05:31:35;26.00;95.20
17740;DHT22;8990;33.226;-97.150;2023-09-19T05:34:07;25.90;95.20
17740;DHT22;8990;33.226;-97.150;2023-09-19T05:36:36;25.90;95.40
17740;DHT22;8990;33.226;-97.150;2023-09-19T05:39:06;25.80;95.90
17740;DHT22;8990;33.226;-97.150;2023-09-19T05:41:38;25.80;95.50
17740;DHT22;8990;33.226;-97.150;2023-09-19T05:44:07;25.80;95.60
17740;DHT22;8990;33.226;-97.150;2023-09-19T05:46:35;25.80;95.70
17740;DHT22;8990;33.226;-97.150;2023-09-19T05:49:04;25.80;95.90
17740;DHT22;8990;33.226;-97.150;2023-09-19T05:51:34;25.80;95.80
17740;DHT22;8990;33.226;-97.150;2023-09-19T05:54:03;25.90;95.90
17740;DHT22;8990;33.226;-97.150;2023-09-19T05:56:31;25.80;95.80
17740;DHT22;8990;33.226;-97.150;2023-09-19T05:59:02;25.90;95.90
17740;DHT22;8990;33.226;-97.150;2023-09-19T06:01:32;25.80;95.90
17740;DHT22;8990;33.226;-97.150;2023-09-19T06:04:01;25.70;95.90
17740;DHT22;8990;33.226;-97.150;2023-09-19T06:06:31;25.70;96.10
17740;DHT22;8990;33.226;-97.150;2023-09-19T06:09:00;25.70;96.00
17740;DHT22;8990;33.226;-97.150;2023-09-19T06:11:32;25.60;96.20
17740;DHT22;8990;33.226;-97.150;2023-09-19T06:14:03;25.60;96.40
17740;DHT22;8990;33.226;-97.150;2023-09-19T06:16:32;25.50;96.40
17740;DHT22;8990;33.226;-97.150;2023-09-19T06:19:01;25.50;96.50
17740;DHT22;8990;33.226;-97.150;2023-09-19T06:21:30;25.50;96.70
17740;DHT22;8990;33.226;-97.150;2023-09-19T06:23:59;25.40;96.60
17740;DHT22;8990;33.226;-97.150;2023-09-19T06:26:28;25.40;96.80
17740;DHT22;8990;33.226;-97.150;2023-09-19T06:28:57;25.30;97.20
17740;DHT22;8990;33.226;-97.150;2023-09-19T06:31:28;25.20;97.00
17740;DHT22;8990;33.226;-97.150;2023-09-19T06:33:58;25.20;97.10
17740;DHT22;8990;33.226;-97.150;2023-09-19T06:36:27;25.20;97.20
17740;DHT22;8990;33.226;-97.150;2023-09-19T06:38:56;25.20;97.70
17740;DHT22;8990;33.226;-97.150;2023-09-19T06:41:25;25.20;97.60
17740;DHT22;8990;33.226;-97.150;2023-09-19T06:43:54;25.20;97.60
17740;DHT22;8990;33.226;-97.150;2023-09-19T06:46:23;25.10;97.90
17740;DHT22;8990;33.226;-97.150;2023-09-19T06:48:54;25.10;97.80
17740;DHT22;8990;33.226;-97.150;2023-09-19T06:51:23;25.10;97.80
17740;DHT22;8990;33.226;-97.150;2023-09-19T06:53:53;25.10;97.90
17740;DHT22;8990;33.226;-97.150;2023-09-19T06:56:23;25.00;97.90
17740;DHT22;8990;33.226;-97.150;2023-09-19T06:58:52;25.00;98.00
17740;DHT22;8990;33.226;-97.150;2023-09-19T07:01:21;25.00;98.20
17740;DHT22;8990;33.226;-97.150;2023-09-19T07:03:50;24.90;98.30
17740;DHT22;8990;33.226;-97.150;2023-09-19T07:06:22;24.90;98.40
17740;DHT22;8990;33.226;-97.150;2023-09-19T07:08:51;24.90;98.40
17740;DHT22;8990;33.226;-97.150;2023-09-19T07:11:20;24.80;98.40
17740;DHT22;8990;33.226;-97.150;2023-09-19T07:13:49;24.80;98.60
17740;DHT22;8990;33.226;-97.150;2023-09-19T07:16:18;24.80;98.80
17740;DHT22;8990;33.226;-97.150;2023-09-19T07:18:56;24.80;99.00
17740;DHT22;8990;33.226;-97.150;2023-09-19T07:21:27;24.70;99.30
17740;DHT22;8990;33.226;-97.150;2023-09-19T07:23:56;24.70;99.40
17740;DHT22;8990;33.226;-97.150;2023-09-19T07:26:25;24.70;99.40
17740;DHT22;8990;33.226;-97.150;2023-09-19T07:28:55;24.60;99.50
17740;DHT22;8990;33.226;-97.150;2023-09-19T07:31:24;24.60;99.60
17740;DHT22;8990;33.226;-97.150;2023-09-19T07:33:54;24.60;99.70
17740;DHT22;8990;33.226;-97.150;2023-09-19T07:36:22;24.60;99.90
17740;DHT22;8990;33.226;-97.150;2023-09-19T07:38:54;24.60;99.90
17740;DHT22;8990;33.226;-97.150;2023-09-19T07:41:24;24.60;99.90
17740;DHT22;8990;33.226;-97.150;2023-09-19T07:43:54;24.60;99.90
17740;DHT22;8990;33.226;-97.150;2023-09-19T07:46:23;24.60;99.90
17740;DHT22;8990;33.226;-97.150;2023-09-19T07:48:52;24.70;99.90
17740;DHT22;8990;33.226;-97.150;2023-09-19T07:51:22;24.70;99.90
17740;DHT22;8990;33.226;-97.150;2023-09-19T07:53:53;24.60;99.90
17740;DHT22;8990;33.226;-97.150;2023-09-19T07:56:22;24.50;99.90
17740;DHT22;8990;33.226;-97.150;2023-09-19T07:58:53;24.50;99.90
17740;DHT22;8990;33.226;-97.150;2023-09-19T08:01:21;24.50;99.90
17740;DHT22;8990;33.226;-97.150;2023-09-19T08:03:51;24.40;99.90
17740;DHT22;8990;33.226;-97.150;2023-09-19T08:06:20;24.50;99.90
17740;DHT22;8990;33.226;-97.150;2023-09-19T08:08:53;24.40;99.90
17740;DHT22;8990;33.226;-97.150;2023-09-19T08:11:23;24.40;99.90
17740;DHT22;8990;33.226;-97.150;2023-09-19T08:13:51;24.40;99.90
17740;DHT22;8990;33.226;-97.150;2023-09-19T08:16:20;24.30;99.90
17740;DHT22;8990;33.226;-97.150;2023-09-19T08:18:51;24.20;99.90
17740;DHT22;8990;33.226;-97.150;2023-09-19T08:21:22;24.20;99.90
17740;DHT22;8990;33.226;-97.150;2023-09-19T08:23:54;24.20;99.90
17740;DHT22;8990;33.226;-97.150;2023-09-19T08:26:24;24.20;99.90
17740;DHT22;8990;33.226;-97.150;2023-09-19T08:28:53;24.20;99.90
17740;DHT22;8990;33.226;-97.150;2023-09-19T08:31:22;24.10;99.90
17740;DHT22;8990;33.226;-97.150;2023-09-19T08:33:52;24.10;99.90
17740;DHT22;8990;33.226;-97.150;2023-09-19T08:36:22;24.10;99.90
17740;DHT22;8990;33.226;-97.150;2023-09-19T08:38:53;24.10;99.90
17740;DHT22;8990;33.226;-97.150;2023-09-19T08:41:22;24.00;99.90
17740;DHT22;8990;33.226;-97.150;2023-09-19T08:43:51;24.00;99.90
17740;DHT22;8990;33.226;-97.150;2023-09-19T08:46:21;24.00;99.90
17740;DHT22;8990;33.226;-97.150;2023-09-19T08:49:03;24.00;99.90
17740;DHT22;8990;33.226;-97.150;2023-09-19T08:51:41;24.00;99.90
17740;DHT22;8990;33.226;-97.150;2023-09-19T08:54:22;24.00;99.90
17740;DHT22;8990;33.226;-97.150;2023-09-19T08:56:54;24.00;99.90
17740;DHT22;8990;33.226;-97.150;2023-09-19T08:59:24;24.00;99.90
17740;DHT22;8990;33.226;-97.150;2023-09-19T09:01:54;24.00;99.90
17740;DHT22;8990;33.226;-97.150;2023-09-19T09:04:24;24.00;99.90
17740;DHT22;8990;33.226;-97.150;2023-09-19T09:06:54;24.00;99.90
17740;DHT22;8990;33.226;-97.150;2023-09-19T09:09:28;24.00;99.90
17740;DHT22;8990;33.226;-97.150;2023-09-19T09:11:58;24.00;99.90
17740;DHT22;8990;33.226;-97.150;2023-09-19T09:14:27;24.00;99.90
17740;DHT22;8990;33.226;-97.150;2023-09-19T09:16:56;24.00;99.90
17740;DHT22;8990;33.226;-97.150;2023-09-19T09:19:26;24.00;99.90
17740;DHT22;8990;33.226;-97.150;2023-09-19T09:21:56;24.00;99.90
17740;DHT22;8990;33.226;-97.150;2023-09-19T09:24:36;24.10;99.90
17740;DHT22;8990;33.226;-97.150;2023-09-19T09:27:06;24.00;99.90
17740;DHT22;8990;33.226;-97.150;2023-09-19T09:29:43;24.00;99.90
17740;DHT22;8990;33.226;-97.150;2023-09-19T09:32:21;23.90;99.90
17740;DHT22;8990;33.226;-97.150;2023-09-19T09:34:52;24.00;99.90
17740;DHT22;8990;33.226;-97.150;2023-09-19T09:37:22;24.00;99.90
17740;DHT22;8990;33.226;-97.150;2023-09-19T09:39:56;24.00;99.90
17740;DHT22;8990;33.226;-97.150;2023-09-19T09:42:33;23.90;99.90
17740;DHT22;8990;33.226;-97.150;2023-09-19T09:45:16;23.90;99.90
17740;DHT22;8990;33.226;-97.150;2023-09-19T09:47:47;23.90;99.90
17740;DHT22;8990;33.226;-97.150;2023-09-19T09:50:30;23.90;99.90
17740;DHT22;8990;33.226;-97.150;2023-09-19T09:53:21;24.00;99.90
17740;DHT22;8990;33.226;-97.150;2023-09-19T09:56:01;24.00;99.90
17740;DHT22;8990;33.226;-97.150;2023-09-19T09:58:34;24.00;99.90
17740;DHT22;8990;33.226;-97.150;2023-09-19T10:01:04;24.00;99.90
17740;DHT22;8990;33.226;-97.150;2023-09-19T10:03:38;24.00;99.90
17740;DHT22;8990;33.226;-97.150;2023-09-19T10:06:11;24.00;99.90
17740;DHT22;8990;33.226;-97.150;2023-09-19T10:09:04;24.00;99.90
17740;DHT22;8990;33.226;-97.150;2023-09-19T10:11:49;24.00;99.90
17740;DHT22;8990;33.226;-97.150;2023-09-19T10:14:31;23.90;99.90
17740;DHT22;8990;33.226;-97.150;2023-09-19T10:17:05;24.00;99.90
17740;DHT22;8990;33.226;-97.150;2023-09-19T10:19:37;23.90;99.90
17740;DHT22;8990;33.226;-97.150;2023-09-19T10:22:15;23.90;99.90
17740;DHT22;8990;33.226;-97.150;2023-09-19T10:24:48;23.90;99.90
17740;DHT22;8990;33.226;-97.150;2023-09-19T10:27:20;23.90;99.90
17740;DHT22;8990;33.226;-97.150;2023-09-19T10:29:50;23.90;99.90
17740;DHT22;8990;33.226;-97.150;2023-09-19T10:32:22;23.90;99.90
17740;DHT22;8990;33.226;-97.150;2023-09-19T10:34:52;23.90;99.90
17740;DHT22;8990;33.226;-97.150;2023-09-19T10:37:24;24.00;99.90
17740;DHT22;8990;33.226;-97.150;2023-09-19T10:39:57;23.90;99.90
17740;DHT22;8990;33.226;-97.150;2023-09-19T10:42:27;23.90;99.90
17740;DHT22;8990;33.226;-97.150;2023-09-19T10:44:58;23.90;99.90
17740;DHT22;8990;33.226;-97.150;2023-09-19T10:47:28;23.90;99.90
17740;DHT22;8990;33.226;-97.150;2023-09-19T10:49:59;23.90;99.90
17740;DHT22;8990;33.226;-97.150;2023-09-19T10:52:28;23.80;99.90
17740;DHT22;8990;33.226;-97.150;2023-09-19T10:55:00;23.80;99.90
17740;DHT22;8990;33.226;-97.150;2023-09-19T10:57:31;23.80;99.90
17740;DHT22;8990;33.226;-97.150;2023-09-19T11:00:03;23.80;99.90
17740;DHT22;8990;33.226;-97.150;2023-09-19T11:03:18;23.80;99.90
17740;DHT22;8990;33.226;-97.150;2023-09-19T11:06:03;23.80;99.90
17740;DHT22;8990;33.226;-97.150;2023-09-19T11:08:56;23.70;99.90
17740;DHT22;8990;33.226;-97.150;2023-09-19T11:11:45;23.80;99.90
17740;DHT22;8990;33.226;-97.150;2023-09-19T11:17:40;24.30;99.90
17740;DHT22;8990;33.226;-97.150;2023-09-19T11:20:24;23.70;99.90
17740;DHT22;8990;33.226;-97.150;2023-09-19T11:23:22;23.70;99.90
17740;DHT22;8990;33.226;-97.150;2023-09-19T11:25:53;23.70;99.90
17740;DHT22;8990;33.226;-97.150;2023-09-19T11:28:37;23.70;99.90
17740;DHT22;8990;33.226;-97.150;2023-09-19T11:34:45;23.70;99.90
17740;DHT22;8990;33.226;-97.150;2023-09-19T11:40:38;23.70;99.90
17740;DHT22;8990;33.226;-97.150;2023-09-19T11:43:30;23.70;99.90
17740;DHT22;8990;33.226;-97.150;2023-09-19T11:46:07;23.60;99.90
17740;DHT22;8990;33.226;-97.150;2023-09-19T11:48:38;23.60;99.90
17740;DHT22;8990;33.226;-97.150;2023-09-19T11:51:17;23.60;99.90
17740;DHT22;8990;33.226;-97.150;2023-09-19T11:53:55;23.60;99.90
17740;DHT22;8990;33.226;-97.150;2023-09-19T11:56:25;23.60;99.90
17740;DHT22;8990;33.226;-97.150;2023-09-19T11:58:55;23.60;99.90
17740;DHT22;8990;33.226;-97.150;2023-09-19T12:01:29;23.60;99.90
17740;DHT22;8990;33.226;-97.150;2023-09-19T12:03:59;23.50;99.90
17740;DHT22;8990;33.226;-97.150;2023-09-19T12:06:31;23.50;99.90
17740;DHT22;8990;33.226;-97.150;2023-09-19T12:09:00;23.50;99.90
17740;DHT22;8990;33.226;-97.150;2023-09-19T12:11:41;23.50;99.90
17740;DHT22;8990;33.226;-97.150;2023-09-19T12:14:11;23.50;99.90
17740;DHT22;8990;33.226;-97.150;2023-09-19T12:16:53;23.50;99.90
17740;DHT22;8990;33.226;-97.150;2023-09-19T12:19:23;23.50;99.90
17740;DHT22;8990;33.226;-97.150;2023-09-19T12:21:57;23.50;99.90
17740;DHT22;8990;33.226;-97.150;2023-09-19T12:24:32;23.50;99.90
17740;DHT22;8990;33.226;-97.150;2023-09-19T12:27:05;23.50;99.90
17740;DHT22;8990;33.226;-97.150;2023-09-19T12:29:43;23.50;99.90
17740;DHT22;8990;33.226;-97.150;2023-09-19T12:32:13;23.50;99.90
17740;DHT22;8990;33.226;-97.150;2023-09-19T12:34:50;23.50;99.90
17740;DHT22;8990;33.226;-97.150;2023-09-19T12:37:23;23.50;99.90
17740;DHT22;8990;33.226;-97.150;2023-09-19T12:40:05;23.50;99.90
17740;DHT22;8990;33.226;-97.150;2023-09-19T12:42:43;23.60;99.90
17740;DHT22;8990;33.226;-97.150;2023-09-19T12:45:13;23.70;99.90
17740;DHT22;8990;33.226;-97.150;2023-09-19T12:48:17;23.80;99.90
17740;DHT22;8990;33.226;-97.150;2023-09-19T12:51:00;23.70;99.90
17740;DHT22;8990;33.226;-97.150;2023-09-19T12:53:36;23.80;99.90
17740;DHT22;8990;33.226;-97.150;2023-09-19T12:56:07;23.90;99.90
17740;DHT22;8990;33.226;-97.150;2023-09-19T12:58:49;23.90;99.90
17740;DHT22;8990;33.226;-97.150;2023-09-19T13:01:18;24.00;99.90
17740;DHT22;8990;33.226;-97.150;2023-09-19T13:04:13;24.10;99.90
17740;DHT22;8990;33.226;-97.150;2023-09-19T13:06:45;24.20;99.90
17740;DHT22;8990;33.226;-97.150;2023-09-19T13:09:17;24.40;99.90
17740;DHT22;8990;33.226;-97.150;2023-09-19T13:11:47;24.50;99.90
17740;DHT22;8990;33.226;-97.150;2023-09-19T13:14:19;24.70;99.90
17740;DHT22;8990;33.226;-97.150;2023-09-19T13:16:59;24.80;99.90
17740;DHT22;8990;33.226;-97.150;2023-09-19T13:19:38;24.90;99.90
17740;DHT22;8990;33.226;-97.150;2023-09-19T13:22:37;25.00;99.90
17740;DHT22;8990;33.226;-97.150;2023-09-19T13:25:09;25.10;99.90
17740;DHT22;8990;33.226;-97.150;2023-09-19T13:27:42;25.10;99.90
17740;DHT22;8990;33.226;-97.150;2023-09-19T13:30:13;25.10;99.90
17740;DHT22;8990;33.226;-97.150;2023-09-19T13:32:42;25.10;99.90
17740;DHT22;8990;33.226;-97.150;2023-09-19T13:35:11;25.20;99.90
17740;DHT22;8990;33.226;-97.150;2023-09-19T13:37:42;25.20;99.90
17740;DHT22;8990;33.226;-97.150;2023-09-19T13:40:15;25.30;99.90
17740;DHT22;8990;33.226;-97.150;2023-09-19T13:42:44;25.30;99.90
17740;DHT22;8990;33.226;-97.150;2023-09-19T13:45:13;25.20;99.90
17740;DHT22;8990;33.226;-97.150;2023-09-19T13:47:44;25.20;99.90
17740;DHT22;8990;33.226;-97.150;2023-09-19T13:50:14;25.20;99.90
17740;DHT22;8990;33.226;-97.150;2023-09-19T13:52:44;25.10;99.90
17740;DHT22;8990;33.226;-97.150;2023-09-19T13:55:15;25.20;99.90
17740;DHT22;8990;33.226;-97.150;2023-09-19T13:57:47;25.10;99.90
17740;DHT22;8990;33.226;-97.150;2023-09-19T14:00:17;25.10;99.90
17740;DHT22;8990;33.226;-97.150;2023-09-19T14:02:46;25.20;99.90
17740;DHT22;8990;33.226;-97.150;2023-09-19T14:05:16;25.10;99.90
17740;DHT22;8990;33.226;-97.150;2023-09-19T14:07:46;25.20;99.90
17740;DHT22;8990;33.226;-97.150;2023-09-19T14:10:16;25.30;99.90
17740;DHT22;8990;33.226;-97.150;2023-09-19T14:12:45;25.40;99.90
17740;DHT22;8990;33.226;-97.150;2023-09-19T14:15:14;25.50;99.90
17740;DHT22;8990;33.226;-97.150;2023-09-19T14:17:43;25.60;99.90
17740;DHT22;8990;33.226;-97.150;2023-09-19T14:20:12;25.70;99.90
17740;DHT22;8990;33.226;-97.150;2023-09-19T14:22:42;25.70;99.90
17740;DHT22;8990;33.226;-97.150;2023-09-19T14:25:11;25.90;99.90
17740;DHT22;8990;33.226;-97.150;2023-09-19T14:27:41;26.00;99.90
17740;DHT22;8990;33.226;-97.150;2023-09-19T14:30:11;26.10;99.90
17740;DHT22;8990;33.226;-97.150;2023-09-19T14:32:40;26.20;99.90
17740;DHT22;8990;33.226;-97.150;2023-09-19T14:35:09;26.30;99.90
17740;DHT22;8990;33.226;-97.150;2023-09-19T14:37:41;26.40;99.90
17740;DHT22;8990;33.226;-97.150;2023-09-19T14:40:12;26.50;99.90
17740;DHT22;8990;33.226;-97.150;2023-09-19T14:42:46;26.60;99.90
17740;DHT22;8990;33.226;-97.150;2023-09-19T14:45:16;26.80;99.90
17740;DHT22;8990;33.226;-97.150;2023-09-19T14:47:45;26.90;99.90
17740;DHT22;8990;33.226;-97.150;2023-09-19T14:50:15;26.90;99.90
17740;DHT22;8990;33.226;-97.150;2023-09-19T14:52:43;27.00;99.90
17740;DHT22;8990;33.226;-97.150;2023-09-19T14:55:12;27.20;99.90
17740;DHT22;8990;33.226;-97.150;2023-09-19T14:57:42;27.30;99.90
17740;DHT22;8990;33.226;-97.150;2023-09-19T15:00:15;27.30;99.90
17740;DHT22;8990;33.226;-97.150;2023-09-19T15:02:45;27.40;99.90
17740;DHT22;8990;33.226;-97.150;2023-09-19T15:05:16;27.60;99.90
17740;DHT22;8990;33.226;-97.150;2023-09-19T15:07:45;27.80;99.90
17740;DHT22;8990;33.226;-97.150;2023-09-19T15:10:14;27.90;99.90
17740;DHT22;8990;33.226;-97.150;2023-09-19T15:12:45;28.10;99.90
17740;DHT22;8990;33.226;-97.150;2023-09-19T15:15:15;28.20;99.90
17740;DHT22;8990;33.226;-97.150;2023-09-19T15:17:44;28.40;99.90
17740;DHT22;8990;33.226;-97.150;2023-09-19T15:20:13;28.60;99.90
17740;DHT22;8990;33.226;-97.150;2023-09-19T15:22:43;28.70;99.90
17740;DHT22;8990;33.226;-97.150;2023-09-19T15:25:13;28.90;99.90
17740;DHT22;8990;33.226;-97.150;2023-09-19T15:27:42;29.10;99.90
17740;DHT22;8990;33.226;-97.150;2023-09-19T15:30:14;29.20;99.90
17740;DHT22;8990;33.226;-97.150;2023-09-19T15:32:43;30.20;99.90
17740;DHT22;8990;33.226;-97.150;2023-09-19T15:35:13;29.50;99.90
17740;DHT22;8990;33.226;-97.150;2023-09-19T15:37:44;29.50;99.90
17740;DHT22;8990;33.226;-97.150;2023-09-19T15:40:13;29.70;99.90
17740;DHT22;8990;33.226;-97.150;2023-09-19T15:42:42;29.90;99.90
17740;DHT22;8990;33.226;-97.150;2023-09-19T15:45:11;30.10;99.90
17740;DHT22;8990;33.226;-97.150;2023-09-19T15:47:44;30.10;99.90
17740;DHT22;8990;33.226;-97.150;2023-09-19T15:50:13;30.00;99.90
17740;DHT22;8990;33.226;-97.150;2023-09-19T15:52:42;30.00;99.90
17740;DHT22;8990;33.226;-97.150;2023-09-19T15:55:11;30.20;99.90
17740;DHT22;8990;33.226;-97.150;2023-09-19T15:57:40;30.40;99.90